Time;durP1;ratioP1;P1;durP2;ratioP2;P2;SDS_P1;SDS_P2;PMS_P1;PMS_P2;Temp;Humidity;BMP_temperature;BMP_pressure;BME280_temperature;BME280_humidity;BME280_pressure;Samples;Min_cycle;Max_cycle;Signal;HPM_P1;HPM_P2
2022/08/02 00:01:51;;;;;;;0.90;0.90;;;;;;;;;;5079508;28;20204;-73
2022/08/02 00:04:18;;;;;;;1.00;0.90;;;;;;;;;;5080282;28;20204;-73
2022/08/02 00:06:46;;;;;;;0.75;0.75;;;;;;;;;;5079442;28;20212;-73
2022/08/02 00:09:14;;;;;;;0.85;0.85;;;;;;;;;;5079843;28;20200;-73
2022/08/02 00:11:42;;;;;;;1.05;1.00;;;;;;;;;;5079670;28;20232;-73
2022/08/02 00:14:10;;;;;;;0.80;0.75;;;;;;;;;;5079611;28;20297;-73
2022/08/02 00:16:39;;;;;;;0.60;0.60;;;;;;;;;;5079317;28;20198;-73
2022/08/02 00:19:06;;;;;;;0.88;0.80;;;;;;;;;;5080154;28;20220;-73
2022/08/02 00:21:34;;;;;;;1.70;0.80;;;;;;;;;;5079924;28;20212;-74
2022/08/02 00:24:02;;;;;;;0.93;0.80;;;;;;;;;;5079890;28;20204;-73
2022/08/02 00:26:29;;;;;;;0.65;0.65;;;;;;;;;;5079434;28;20204;-73
2022/08/02 00:28:57;;;;;;;0.80;0.80;;;;;;;;;;5079761;28;20227;-73
2022/08/02 00:31:24;;;;;;;0.90;0.90;;;;;;;;;;5079181;28;20205;-73
2022/08/02 00:33:53;;;;;;;0.90;0.90;;;;;;;;;;5079698;28;20592;-73
2022/08/02 00:36:21;;;;;;;0.80;0.73;;;;;;;;;;5079343;28;20287;-73
2022/08/02 00:38:49;;;;;;;1.05;0.80;;;;;;;;;;5078640;28;20323;-73
2022/08/02 00:41:18;;;;;;;0.80;0.80;;;;;;;;;;5078978;28;20592;-73
2022/08/02 00:43:46;;;;;;;0.90;0.90;;;;;;;;;;5079219;28;20208;-72
2022/08/02 00:46:13;;;;;;;0.75;0.75;;;;;;;;;;5079023;28;20212;-72
2022/08/02 00:48:41;;;;;;;1.08;1.00;;;;;;;;;;5079624;28;20204;-73
2022/08/02 00:51:10;;;;;;;0.98;0.88;;;;;;;;;;5078269;28;20218;-73
2022/08/02 00:53:38;;;;;;;1.17;0.90;;;;;;;;;;5079401;28;20531;-73
2022/08/02 00:56:05;;;;;;;0.82;0.82;;;;;;;;;;5079373;28;20222;-73
2022/08/02 00:58:33;;;;;;;0.80;0.80;;;;;;;;;;5078646;28;20304;-73
2022/08/02 01:01:01;;;;;;;1.83;0.93;;;;;;;;;;5079151;28;20283;-73
2022/08/02 01:03:29;;;;;;;1.40;0.90;;;;;;;;;;5079025;28;20263;-73
2022/08/02 01:05:57;;;;;;;1.20;0.90;;;;;;;;;;5079048;28;20265;-73
2022/08/02 01:08:26;;;;;;;0.70;0.70;;;;;;;;;;5078365;28;20223;-72
2022/08/02 01:10:53;;;;;;;0.95;0.90;;;;;;;;;;5078509;28;20283;-73
2022/08/02 01:13:21;;;;;;;0.93;0.93;;;;;;;;;;5078784;28;20204;-73
2022/08/02 01:15:52;;;;;;;0.90;0.90;;;;;;;;;;5078835;28;20212;-72
2022/08/02 01:18:23;;;;;;;1.20;0.85;;;;;;;;;;5078181;28;20224;-72
2022/08/02 01:21:02;;;;;;;1.00;0.90;;;;;;;;;;5078882;28;20212;-73
2022/08/02 01:23:41;;;;;;;0.80;0.80;;;;;;;;;;5078115;28;20596;-72
2022/08/02 01:26:15;;;;;;;0.77;0.77;;;;;;;;;;5078076;28;20205;-72
2022/08/02 01:28:49;;;;;;;1.55;0.82;;;;;;;;;;5078598;28;20200;-73
2022/08/02 01:31:19;;;;;;;1.45;0.95;;;;;;;;;;5078254;28;20203;-73
2022/08/02 01:33:49;;;;;;;0.90;0.90;;;;;;;;;;5077972;28;20611;-73
2022/08/02 01:36:19;;;;;;;0.80;0.80;;;;;;;;;;5077802;28;20510;-73
2022/08/02 01:38:48;;;;;;;1.95;0.90;;;;;;;;;;5077771;28;20322;-73
2022/08/02 01:41:18;;;;;;;0.93;0.88;;;;;;;;;;5078165;28;20589;-73
2022/08/02 01:43:48;;;;;;;0.95;0.95;;;;;;;;;;5078189;28;20646;-73
2022/08/02 01:46:17;;;;;;;1.38;1.05;;;;;;;;;;5078114;28;20602;-73
2022/08/02 01:48:46;;;;;;;1.10;1.10;;;;;;;;;;5077768;28;20216;-73
2022/08/02 01:51:15;;;;;;;0.95;0.90;;;;;;;;;;5077947;28;20204;-73
2022/08/02 01:53:43;;;;;;;0.95;0.95;;;;;;;;;;5077957;28;20271;-73
2022/08/02 01:56:12;;;;;;;1.02;0.90;;;;;;;;;;5077797;28;20266;-73
2022/08/02 01:58:40;;;;;;;1.00;0.90;;;;;;;;;;5077787;28;20235;-73
2022/08/02 02:01:10;;;;;;;0.90;0.90;;;;;;;;;;5076878;28;20772;-73
2022/08/02 02:03:39;;;;;;;1.65;1.05;;;;;;;;;;5077114;28;20266;-73
2022/08/02 02:06:08;;;;;;;1.00;1.00;;;;;;;;;;5076943;28;20204;-73
2022/08/02 02:08:37;;;;;;;1.55;1.10;;;;;;;;;;5077095;28;20204;-73
2022/08/02 02:11:05;;;;;;;1.00;1.00;;;;;;;;;;5077263;28;20215;-73
2022/08/02 02:13:34;;;;;;;0.95;0.90;;;;;;;;;;5077256;28;20212;-73
2022/08/02 02:16:03;;;;;;;1.50;1.00;;;;;;;;;;5077297;28;20785;-74
2022/08/02 02:18:37;;;;;;;1.08;1.00;;;;;;;;;;5077513;28;20508;-73
2022/08/02 02:21:05;;;;;;;1.00;1.00;;;;;;;;;;5077086;28;20208;-73
2022/08/02 02:23:32;;;;;;;1.20;1.10;;;;;;;;;;5077394;28;20208;-73
2022/08/02 02:26:00;;;;;;;1.35;1.17;;;;;;;;;;5077278;28;20216;-73
2022/08/02 02:28:30;;;;;;;1.65;1.00;;;;;;;;;;5077328;28;20278;-73
2022/08/02 02:31:01;;;;;;;1.23;1.13;;;;;;;;;;5077518;28;20212;-73
2022/08/02 02:33:30;;;;;;;1.10;1.10;;;;;;;;;;5077921;28;20208;-74
2022/08/02 02:36:00;;;;;;;1.60;1.10;;;;;;;;;;5077510;28;20228;-73
2022/08/02 02:38:29;;;;;;;1.45;0.85;;;;;;;;;;5077806;28;20224;-73
2022/08/02 02:40:59;;;;;;;1.00;0.90;;;;;;;;;;5077754;28;20294;-73
2022/08/02 02:43:28;;;;;;;0.88;0.88;;;;;;;;;;5077706;28;20212;-73
2022/08/02 02:45:56;;;;;;;0.90;0.90;;;;;;;;;;5077322;28;20204;-73
2022/08/02 02:48:24;;;;;;;1.00;1.00;;;;;;;;;;5077724;28;20212;-74
2022/08/02 02:50:51;;;;;;;1.45;1.08;;;;;;;;;;5077253;28;20219;-73
2022/08/02 02:53:21;;;;;;;1.15;1.15;;;;;;;;;;5076932;28;20305;-73
2022/08/02 02:55:49;;;;;;;1.55;1.08;;;;;;;;;;5077415;28;20291;-73
2022/08/02 02:58:17;;;;;;;1.05;1.05;;;;;;;;;;5077885;28;20519;-73
2022/08/02 03:03:30;;;;;;;1.20;1.10;;;;;;;;;;5077220;28;20203;-73
2022/08/02 03:05:58;;;;;;;1.05;1.05;;;;;;;;;;5076985;28;20204;-73
2022/08/02 03:08:27;;;;;;;1.33;1.23;;;;;;;;;;5077180;28;20211;-73
2022/08/02 03:10:55;;;;;;;0.90;0.90;;;;;;;;;;5077431;28;20524;-73
2022/08/02 03:13:24;;;;;;;1.00;1.00;;;;;;;;;;5078375;28;20208;-73
2022/08/02 03:15:53;;;;;;;1.52;1.08;;;;;;;;;;5081417;28;20270;-73
2022/08/02 03:18:33;;;;;;;1.10;1.10;;;;;;;;;;5081050;28;20196;-73
2022/08/02 03:21:02;;;;;;;1.27;1.25;;;;;;;;;;5080887;28;20211;-73
2022/08/02 03:23:31;;;;;;;1.20;1.20;;;;;;;;;;5081011;28;20235;-73
2022/08/02 03:25:59;;;;;;;1.10;1.10;;;;;;;;;;5081049;28;20236;-73
2022/08/02 03:28:27;;;;;;;1.00;1.00;;;;;;;;;;5081034;28;20212;-73
2022/08/02 03:30:54;;;;;;;1.30;1.20;;;;;;;;;;5081299;28;20212;-73
2022/08/02 03:33:23;;;;;;;1.25;1.23;;;;;;;;;;5081286;28;20212;-73
2022/08/02 03:35:51;;;;;;;1.20;1.20;;;;;;;;;;5081008;28;20293;-73
2022/08/02 03:38:20;;;;;;;1.40;1.30;;;;;;;;;;5080206;28;20587;-73
2022/08/02 03:40:50;;;;;;;1.30;1.20;;;;;;;;;;5080860;28;20277;-73
2022/08/02 03:43:18;;;;;;;1.05;1.05;;;;;;;;;;5080049;28;20238;-73
2022/08/02 03:45:47;;;;;;;1.17;1.10;;;;;;;;;;5080886;28;20613;-74
2022/08/02 03:48:15;;;;;;;1.30;1.20;;;;;;;;;;5080335;28;20208;-73
2022/08/02 03:50:44;;;;;;;1.10;1.00;;;;;;;;;;5080330;28;20262;-73
2022/08/02 03:53:11;;;;;;;1.00;1.00;;;;;;;;;;5080623;28;20282;-73
2022/08/02 03:55:40;;;;;;;1.50;1.40;;;;;;;;;;5080237;28;20204;-73
2022/08/02 03:58:09;;;;;;;1.27;1.20;;;;;;;;;;5080569;28;20277;-73
2022/08/02 04:00:36;;;;;;;1.20;1.20;;;;;;;;;;5080291;28;20309;-74
2022/08/02 04:03:04;;;;;;;1.48;1.25;;;;;;;;;;5079940;28;20204;-73
2022/08/02 04:05:32;;;;;;;1.30;1.20;;;;;;;;;;5079729;28;20204;-74
2022/08/02 04:07:59;;;;;;;1.15;1.15;;;;;;;;;;5080213;28;20208;-74
2022/08/02 04:10:27;;;;;;;1.10;1.10;;;;;;;;;;5079808;28;20305;-73
2022/08/02 04:12:55;;;;;;;2.22;1.15;;;;;;;;;;5079991;28;20216;-73
2022/08/02 04:15:24;;;;;;;1.35;1.25;;;;;;;;;;5079990;28;20215;-73
2022/08/02 04:17:59;;;;;;;1.35;1.20;;;;;;;;;;5079300;28;20285;-73
2022/08/02 04:20:29;;;;;;;1.20;1.20;;;;;;;;;;5079452;28;20223;-73
2022/08/02 04:22:58;;;;;;;1.27;1.27;;;;;;;;;;5078917;28;20204;-73
2022/08/02 04:25:26;;;;;;;1.17;1.08;;;;;;;;;;5079471;28;20212;-73
2022/08/02 04:27:55;;;;;;;1.08;1.08;;;;;;;;;;5079048;28;20269;-73
2022/08/02 04:30:23;;;;;;;1.20;1.20;;;;;;;;;;5079281;28;20262;-73
2022/08/02 04:32:52;;;;;;;1.48;1.40;;;;;;;;;;5078848;28;20212;-73
2022/08/02 04:35:21;;;;;;;1.15;1.15;;;;;;;;;;5078400;28;20295;-74
2022/08/02 04:37:49;;;;;;;1.15;1.15;;;;;;;;;;5078430;28;20215;-73
2022/08/02 04:40:17;;;;;;;1.20;1.20;;;;;;;;;;5078127;28;20224;-73
2022/08/02 04:42:44;;;;;;;1.20;1.10;;;;;;;;;;5078421;28;20583;-74
2022/08/02 04:45:12;;;;;;;1.10;1.10;;;;;;;;;;5078784;28;20311;-73
2022/08/02 04:47:42;;;;;;;1.30;1.20;;;;;;;;;;5079207;28;20542;-73
2022/08/02 04:50:09;;;;;;;1.50;1.10;;;;;;;;;;5078340;28;20208;-73
2022/08/02 04:52:37;;;;;;;1.45;1.30;;;;;;;;;;5078436;28;20204;-73
2022/08/02 04:55:05;;;;;;;1.40;1.30;;;;;;;;;;5078076;28;20206;-73
2022/08/02 05:00:18;;;;;;;1.10;1.10;;;;;;;;;;5077886;28;20305;-73
2022/08/02 05:02:47;;;;;;;1.27;1.17;;;;;;;;;;5078258;28;20555;-73
2022/08/02 05:05:15;;;;;;;1.15;1.15;;;;;;;;;;5077430;28;20492;-73
2022/08/02 05:07:42;;;;;;;1.02;1.02;;;;;;;;;;5077871;28;20208;-74
2022/08/02 05:10:10;;;;;;;1.40;1.30;;;;;;;;;;5077684;28;20223;-73
2022/08/02 05:12:38;;;;;;;1.10;1.10;;;;;;;;;;5078560;28;20204;-73
2022/08/02 05:15:06;;;;;;;1.30;1.20;;;;;;;;;;5078096;28;20269;-73
2022/08/02 05:17:33;;;;;;;1.40;1.30;;;;;;;;;;5077741;28;20200;-74
2022/08/02 05:20:02;;;;;;;1.45;1.20;;;;;;;;;;5077254;28;20271;-73
2022/08/02 05:22:30;;;;;;;1.30;1.30;;;;;;;;;;5077424;28;20204;-73
2022/08/02 05:24:58;;;;;;;1.08;1.02;;;;;;;;;;5077690;28;20201;-73
2022/08/02 05:27:26;;;;;;;1.30;1.30;;;;;;;;;;5077682;28;20266;-73
2022/08/02 05:29:53;;;;;;;1.25;1.10;;;;;;;;;;5077280;28;20200;-73
2022/08/02 05:32:21;;;;;;;1.60;1.20;;;;;;;;;;5077319;28;20205;-73
2022/08/02 05:34:48;;;;;;;1.17;1.10;;;;;;;;;;5077567;28;20201;-73
2022/08/02 05:37:17;;;;;;;1.23;1.20;;;;;;;;;;5076749;28;20243;-73
2022/08/02 05:39:45;;;;;;;1.10;1.10;;;;;;;;;;5077234;28;20501;-73
2022/08/02 05:42:12;;;;;;;1.40;1.30;;;;;;;;;;5077289;28;20205;-73
2022/08/02 05:44:40;;;;;;;1.40;1.27;;;;;;;;;;5076964;28;20266;-73
2022/08/02 05:47:07;;;;;;;1.05;1.05;;;;;;;;;;5076903;28;20232;-73
2022/08/02 05:49:35;;;;;;;1.40;1.30;;;;;;;;;;5077609;28;20200;-73
2022/08/02 05:52:05;;;;;;;1.40;1.30;;;;;;;;;;5076718;28;20202;-73
2022/08/02 05:54:37;;;;;;;1.30;1.20;;;;;;;;;;5076805;28;20201;-73
2022/08/02 05:57:06;;;;;;;1.73;1.35;;;;;;;;;;5076988;28;20269;-72
2022/08/02 05:59:37;;;;;;;1.20;1.10;;;;;;;;;;5076856;28;20224;-73
2022/08/02 06:02:11;;;;;;;1.83;1.48;;;;;;;;;;5076256;28;20635;-73
2022/08/02 06:04:43;;;;;;;1.40;1.30;;;;;;;;;;5076053;28;20550;-73
2022/08/02 06:07:11;;;;;;;1.38;1.27;;;;;;;;;;5075885;28;20603;-73
2022/08/02 06:09:41;;;;;;;1.63;1.52;;;;;;;;;;5077149;28;20210;-73
2022/08/02 06:12:09;;;;;;;1.40;1.30;;;;;;;;;;5076067;28;20227;-73
2022/08/02 06:14:38;;;;;;;1.50;1.40;;;;;;;;;;5076132;28;20826;-73
2022/08/02 06:17:05;;;;;;;2.03;1.50;;;;;;;;;;5075875;28;20255;-73
2022/08/02 06:19:33;;;;;;;1.27;1.20;;;;;;;;;;5076063;28;20232;-73
2022/08/02 06:22:13;;;;;;;1.40;1.30;;;;;;;;;;5076066;28;20584;-73
2022/08/02 06:24:43;;;;;;;1.55;1.45;;;;;;;;;;5076216;28;20199;-73
2022/08/02 06:27:11;;;;;;;1.42;1.33;;;;;;;;;;5076427;28;20326;-73
2022/08/02 06:29:39;;;;;;;1.40;1.30;;;;;;;;;;5075422;28;20200;-73
2022/08/02 06:32:08;;;;;;;1.50;1.40;;;;;;;;;;5076285;28;20231;-73
2022/08/02 06:34:37;;;;;;;1.98;1.35;;;;;;;;;;5076053;28;20211;-73
2022/08/02 06:37:11;;;;;;;1.50;1.35;;;;;;;;;;5075745;28;20650;-73
2022/08/02 06:39:40;;;;;;;1.58;1.48;;;;;;;;;;5076142;28;20290;-73
2022/08/02 06:42:13;;;;;;;1.73;1.58;;;;;;;;;;5075883;28;20212;-73
2022/08/02 06:44:40;;;;;;;1.63;1.50;;;;;;;;;;5075779;28;20654;-73
2022/08/02 06:47:08;;;;;;;1.80;1.70;;;;;;;;;;5075203;28;20580;-73
2022/08/02 06:49:35;;;;;;;1.70;1.60;;;;;;;;;;5075431;28;20208;-73
2022/08/02 06:52:03;;;;;;;2.08;1.60;;;;;;;;;;5075729;28;20205;-73
2022/08/02 06:54:30;;;;;;;1.60;1.50;;;;;;;;;;5075733;28;20200;-73
2022/08/02 06:56:58;;;;;;;2.03;1.48;;;;;;;;;;5075576;28;20573;-73
2022/08/02 06:59:26;;;;;;;1.88;1.75;;;;;;;;;;5074654;28;20208;-73
2022/08/02 07:01:54;;;;;;;2.00;1.90;;;;;;;;;;5074698;28;20200;-73
2022/08/02 07:04:21;;;;;;;1.70;1.60;;;;;;;;;;5074832;28;20562;-73
2022/08/02 07:06:49;;;;;;;1.80;1.70;;;;;;;;;;5074823;28;20250;-73
2022/08/02 07:09:16;;;;;;;1.90;1.80;;;;;;;;;;5074936;28;20292;-73
2022/08/02 07:11:43;;;;;;;2.08;1.70;;;;;;;;;;5075521;28;20728;-73
2022/08/02 07:14:10;;;;;;;1.80;1.48;;;;;;;;;;5074829;28;20204;-73
2022/08/02 07:16:39;;;;;;;2.00;1.77;;;;;;;;;;5075187;28;20201;-73
2022/08/02 07:19:06;;;;;;;1.73;1.63;;;;;;;;;;5074336;28;20600;-73
2022/08/02 07:21:34;;;;;;;2.00;1.80;;;;;;;;;;5074251;28;20224;-73
2022/08/02 07:24:01;;;;;;;2.30;2.08;;;;;;;;;;5075202;28;20279;-73
2022/08/02 07:26:28;;;;;;;2.65;2.08;;;;;;;;;;5074897;28;20661;-73
2022/08/02 07:28:57;;;;;;;2.20;1.90;;;;;;;;;;5074714;28;20257;-73
2022/08/02 07:31:25;;;;;;;2.58;2.13;;;;;;;;;;5074619;28;20210;-73
2022/08/02 07:33:53;;;;;;;2.25;2.05;;;;;;;;;;5074707;28;20212;-73
2022/08/02 07:36:20;;;;;;;2.67;2.00;;;;;;;;;;5074646;28;20236;-73
2022/08/02 07:38:48;;;;;;;2.10;1.90;;;;;;;;;;5074297;28;20266;-73
2022/08/02 07:41:15;;;;;;;2.20;2.00;;;;;;;;;;5074094;28;20235;-73
2022/08/02 07:43:43;;;;;;;2.15;2.05;;;;;;;;;;5073750;28;20201;-73
2022/08/02 07:46:10;;;;;;;2.53;2.00;;;;;;;;;;5073449;28;20264;-73
2022/08/02 07:48:38;;;;;;;2.15;1.90;;;;;;;;;;5073641;28;20269;-72
2022/08/02 07:51:06;;;;;;;2.28;1.90;;;;;;;;;;5073421;28;20196;-73
2022/08/02 07:53:34;;;;;;;2.13;1.92;;;;;;;;;;5073261;28;20239;-73
2022/08/02 07:56:01;;;;;;;2.10;1.90;;;;;;;;;;5073745;28;20585;-73
2022/08/02 07:58:29;;;;;;;2.25;2.05;;;;;;;;;;5074324;28;20273;-73
2022/08/02 08:00:56;;;;;;;2.17;1.95;;;;;;;;;;5076610;28;20448;-73
2022/08/02 08:03:23;;;;;;;2.35;2.10;;;;;;;;;;5077160;28;20204;-73
2022/08/02 08:05:53;;;;;;;2.40;2.20;;;;;;;;;;5077476;28;20219;-73
2022/08/02 08:08:21;;;;;;;2.30;1.92;;;;;;;;;;5077495;28;20747;-73
2022/08/02 08:10:49;;;;;;;2.10;1.90;;;;;;;;;;5077005;28;20208;-73
2022/08/02 08:13:16;;;;;;;2.20;2.03;;;;;;;;;;5076842;28;20274;-73
2022/08/02 08:15:44;;;;;;;2.45;2.25;;;;;;;;;;5077329;28;20204;-73
2022/08/02 08:18:11;;;;;;;2.67;2.20;;;;;;;;;;5077895;28;20219;-73
2022/08/02 08:20:39;;;;;;;2.28;2.08;;;;;;;;;;5076778;28;20293;-73
2022/08/02 08:23:06;;;;;;;2.10;2.00;;;;;;;;;;5076353;28;20837;-73
2022/08/02 08:25:35;;;;;;;2.05;1.88;;;;;;;;;;5076487;28;20265;-73
2022/08/02 08:28:02;;;;;;;1.90;1.80;;;;;;;;;;5076422;28;20261;-73
2022/08/02 08:30:30;;;;;;;2.60;1.88;;;;;;;;;;5076696;28;20200;-73
2022/08/02 08:32:58;;;;;;;2.08;1.90;;;;;;;;;;5077367;28;20480;-73
2022/08/02 08:35:25;;;;;;;1.98;1.88;;;;;;;;;;5076477;28;20295;-74
2022/08/02 08:37:52;;;;;;;2.47;1.90;;;;;;;;;;5076313;28;20214;-73
2022/08/02 08:40:19;;;;;;;2.03;1.90;;;;;;;;;;5076610;28;20815;-73
2022/08/02 08:42:48;;;;;;;2.20;2.00;;;;;;;;;;5076577;28;20208;-73
2022/08/02 08:45:16;;;;;;;2.08;1.90;;;;;;;;;;5076532;28;20289;-73
2022/08/02 08:47:44;;;;;;;2.20;2.00;;;;;;;;;;5075462;28;20212;-73
2022/08/02 08:50:13;;;;;;;1.90;1.80;;;;;;;;;;5076194;28;20208;-73
2022/08/02 08:52:42;;;;;;;2.10;1.90;;;;;;;;;;5075815;28;20343;-73
2022/08/02 08:55:10;;;;;;;2.15;1.88;;;;;;;;;;5075764;28;20212;-73
2022/08/02 08:57:40;;;;;;;2.10;2.00;;;;;;;;;;5075980;28;20583;-74
2022/08/02 09:00:11;;;;;;;1.83;1.67;;;;;;;;;;5074750;28;20200;-73
2022/08/02 09:02:40;;;;;;;2.13;2.03;;;;;;;;;;5074323;28;20196;-73
2022/08/02 09:05:09;;;;;;;1.88;1.77;;;;;;;;;;5073977;28;20258;-73
2022/08/02 09:07:36;;;;;;;1.95;1.80;;;;;;;;;;5073945;28;20193;-74
2022/08/02 09:10:25;;;;;;;1.83;1.73;;;;;;;;;;5075615;28;20208;-73
2022/08/02 09:13:06;;;;;;;1.70;1.60;;;;;;;;;;5074185;28;20262;-73
2022/08/02 09:15:35;;;;;;;1.80;1.70;;;;;;;;;;5076140;28;20536;-73
2022/08/02 09:18:03;;;;;;;1.85;1.70;;;;;;;;;;5075365;28;20580;-73
2022/08/02 09:20:30;;;;;;;2.20;1.88;;;;;;;;;;5074742;28;20316;-73
2022/08/02 09:23:17;;;;;;;2.08;1.90;;;;;;;;;;5075385;28;20635;-73
2022/08/02 09:25:55;;;;;;;1.98;1.88;;;;;;;;;;5075565;28;20196;-73
2022/08/02 09:28:23;;;;;;;1.50;1.40;;;;;;;;;;5075257;28;20239;-73
2022/08/02 09:30:51;;;;;;;2.03;1.83;;;;;;;;;;5075544;28;20211;-73
2022/08/02 09:33:25;;;;;;;3.05;2.00;;;;;;;;;;5075402;28;20204;-73
2022/08/02 09:35:59;;;;;;;1.80;1.70;;;;;;;;;;5075177;28;20230;-73
2022/08/02 09:38:26;;;;;;;1.70;1.60;;;;;;;;;;5074815;28;20218;-73
2022/08/02 09:40:54;;;;;;;2.00;1.90;;;;;;;;;;5074720;28;20239;-73
2022/08/02 09:43:21;;;;;;;1.88;1.77;;;;;;;;;;5075419;28;20200;-73
2022/08/02 09:45:49;;;;;;;1.88;1.70;;;;;;;;;;5075050;28;20294;-73
2022/08/02 09:48:17;;;;;;;1.92;1.83;;;;;;;;;;5074589;28;20270;-73
2022/08/02 09:50:45;;;;;;;1.83;1.73;;;;;;;;;;5074996;28;20558;-73
2022/08/02 09:53:13;;;;;;;2.40;2.20;;;;;;;;;;5075504;28;20196;-74
2022/08/02 09:55:41;;;;;;;2.10;1.88;;;;;;;;;;5074555;28;20234;-73
2022/08/02 09:58:18;;;;;;;2.35;2.08;;;;;;;;;;5073701;28;20281;-73
2022/08/02 10:00:55;;;;;;;1.70;1.60;;;;;;;;;;5074993;28;20534;-72
2022/08/02 10:03:24;;;;;;;2.15;2.00;;;;;;;;;;5073807;28;20204;-73
2022/08/02 10:05:52;;;;;;;2.28;1.95;;;;;;;;;;5074766;28;20197;-72
2022/08/02 10:08:20;;;;;;;1.92;1.83;;;;;;;;;;5075132;28;20208;-72
2022/08/02 10:10:48;;;;;;;1.88;1.77;;;;;;;;;;5074759;28;20207;-73
2022/08/02 10:13:18;;;;;;;1.90;1.80;;;;;;;;;;5074302;28;20227;-72
2022/08/02 10:15:47;;;;;;;1.88;1.77;;;;;;;;;;5073583;28;20214;-73
2022/08/02 10:18:15;;;;;;;2.25;2.05;;;;;;;;;;5074505;28;20204;-73
2022/08/02 10:20:44;;;;;;;2.03;1.75;;;;;;;;;;5074806;28;20215;-72
2022/08/02 10:23:14;;;;;;;2.05;1.92;;;;;;;;;;5074385;28;20270;-72
2022/08/02 10:25:41;;;;;;;2.20;2.00;;;;;;;;;;5074383;28;20267;-73
2022/08/02 10:28:09;;;;;;;1.95;1.85;;;;;;;;;;5073540;28;20569;-73
2022/08/02 10:30:38;;;;;;;1.90;1.70;;;;;;;;;;5074715;28;20219;-73
2022/08/02 10:33:06;;;;;;;1.90;1.80;;;;;;;;;;5074772;28;20207;-73
2022/08/02 10:35:34;;;;;;;2.00;1.80;;;;;;;;;;5073728;28;20662;-73
2022/08/02 10:38:06;;;;;;;2.45;1.50;;;;;;;;;;5074178;28;20208;-74
2022/08/02 10:40:43;;;;;;;1.90;1.80;;;;;;;;;;5074571;28;20739;-73
2022/08/02 10:43:11;;;;;;;2.20;2.00;;;;;;;;;;5073181;28;20208;-73
2022/08/02 10:45:38;;;;;;;1.70;1.60;;;;;;;;;;5074812;28;20543;-73
2022/08/02 10:48:08;;;;;;;1.90;1.80;;;;;;;;;;5074723;28;20277;-73
2022/08/02 10:50:54;;;;;;;1.70;1.60;;;;;;;;;;5074093;28;20269;-73
2022/08/02 10:53:27;;;;;;;2.25;1.67;;;;;;;;;;5074659;28;20211;-74
2022/08/02 10:55:54;;;;;;;3.85;1.83;;;;;;;;;;5073692;28;20200;-73
2022/08/02 10:58:23;;;;;;;2.20;1.85;;;;;;;;;;5074057;28;20306;-73
2022/08/02 11:00:50;;;;;;;2.38;1.85;;;;;;;;;;5073693;28;20212;-73
2022/08/02 11:03:39;;;;;;;3.72;1.73;;;;;;;;;;5074128;28;20212;-73
2022/08/02 11:06:07;;;;;;;3.83;1.70;;;;;;;;;;5073670;28;20756;-72
2022/08/02 11:08:36;;;;;;;2.80;1.73;;;;;;;;;;5073569;28;20215;-72
2022/08/02 11:11:16;;;;;;;1.92;1.70;;;;;;;;;;5073665;28;20602;-73
2022/08/02 11:14:03;;;;;;;1.95;1.80;;;;;;;;;;5073641;28;20755;-72
2022/08/02 11:16:48;;;;;;;1.80;1.70;;;;;;;;;;5072879;28;20196;-72
2022/08/02 11:19:16;;;;;;;2.30;2.10;;;;;;;;;;5073278;28;20204;-72
2022/08/02 11:22:00;;;;;;;2.08;1.95;;;;;;;;;;5073504;28;20231;-72
2022/08/02 11:24:30;;;;;;;1.80;1.70;;;;;;;;;;5073541;28;20204;-73
2022/08/02 11:26:57;;;;;;;2.17;1.83;;;;;;;;;;5073738;28;20204;-73
2022/08/02 11:29:32;;;;;;;2.90;2.15;;;;;;;;;;5073935;28;20289;-73
2022/08/02 11:31:59;;;;;;;2.00;1.88;;;;;;;;;;5073510;28;20314;-73
2022/08/02 11:34:27;;;;;;;2.25;2.10;;;;;;;;;;5074175;28;20204;-73
2022/08/02 11:36:54;;;;;;;2.05;1.90;;;;;;;;;;5077760;28;20239;-73
2022/08/02 11:39:23;;;;;;;2.20;2.00;;;;;;;;;;5076598;28;20266;-73
2022/08/02 11:41:52;;;;;;;2.47;2.00;;;;;;;;;;5076109;28;20278;-73
2022/08/02 11:44:19;;;;;;;2.83;2.00;;;;;;;;;;5075683;28;20219;-69
2022/08/02 11:46:54;;;;;;;2.10;2.00;;;;;;;;;;5076757;28;20200;-71
2022/08/02 11:49:22;;;;;;;2.80;1.95;;;;;;;;;;5076358;28;20195;-71
2022/08/02 11:51:53;;;;;;;2.30;2.10;;;;;;;;;;5076241;28;20299;-71
2022/08/02 11:54:24;;;;;;;2.40;2.20;;;;;;;;;;5076143;28;20270;-71
2022/08/02 11:56:52;;;;;;;2.20;2.10;;;;;;;;;;5076449;28;20266;-70
2022/08/02 11:59:20;;;;;;;1.90;1.80;;;;;;;;;;5077430;28;20546;-71
2022/08/02 12:01:48;;;;;;;2.15;1.95;;;;;;;;;;5077098;28;20224;-70
2022/08/02 12:04:19;;;;;;;2.17;2.08;;;;;;;;;;5076072;28;20216;-70
2022/08/02 12:06:56;;;;;;;2.00;1.90;;;;;;;;;;5076781;28;20204;-70
2022/08/02 12:09:24;;;;;;;2.15;2.05;;;;;;;;;;5075485;28;20199;-71
2022/08/02 12:11:52;;;;;;;2.38;2.10;;;;;;;;;;5076777;28;20208;-70
2022/08/02 12:14:20;;;;;;;2.20;1.85;;;;;;;;;;5076538;28;20447;-71
2022/08/02 12:19:33;;;;;;;2.00;1.90;;;;;;;;;;5075460;28;20199;-69
2022/08/02 12:22:08;;;;;;;1.80;1.70;;;;;;;;;;5076011;28;20712;-69
2022/08/02 12:24:35;;;;;;;2.58;2.13;;;;;;;;;;5077006;28;20203;-70
2022/08/02 12:27:04;;;;;;;2.28;2.00;;;;;;;;;;5076818;28;20204;-68
2022/08/02 12:29:32;;;;;;;3.40;1.85;;;;;;;;;;5076616;28;20529;-69
2022/08/02 12:31:59;;;;;;;1.98;1.88;;;;;;;;;;5075558;28;20208;-69
2022/08/02 12:34:27;;;;;;;2.38;2.10;;;;;;;;;;5077059;28;20212;-69
2022/08/02 12:37:01;;;;;;;1.85;1.75;;;;;;;;;;5076118;28;20224;-69
2022/08/02 12:39:36;;;;;;;2.10;2.00;;;;;;;;;;5075016;28;20207;-69
2022/08/02 12:42:06;;;;;;;2.47;2.08;;;;;;;;;;5076701;28;20238;-69
2022/08/02 12:44:34;;;;;;;2.30;1.88;;;;;;;;;;5076814;28;20212;-69
2022/08/02 12:47:03;;;;;;;2.47;1.80;;;;;;;;;;5074807;28;20200;-69
2022/08/02 12:49:30;;;;;;;1.80;1.70;;;;;;;;;;5076508;28;20281;-69
2022/08/02 12:51:58;;;;;;;2.10;2.00;;;;;;;;;;5076843;28;20197;-69
2022/08/02 12:54:26;;;;;;;1.73;1.63;;;;;;;;;;5076576;28;20293;-69
2022/08/02 12:56:53;;;;;;;1.98;1.77;;;;;;;;;;5075351;28;20307;-70
2022/08/02 12:59:38;;;;;;;1.95;1.85;;;;;;;;;;5075528;28;20212;-69
2022/08/02 13:02:06;;;;;;;2.22;2.10;;;;;;;;;;5076380;28;20600;-69
2022/08/02 13:04:34;;;;;;;1.77;1.67;;;;;;;;;;5075704;28;20204;-69
2022/08/02 13:07:02;;;;;;;1.90;1.80;;;;;;;;;;5076608;28;20213;-69
2022/08/02 13:09:29;;;;;;;2.05;1.95;;;;;;;;;;5075792;28;20211;-69
2022/08/02 13:11:56;;;;;;;2.22;1.83;;;;;;;;;;5074989;28;20241;-69
2022/08/02 13:14:24;;;;;;;1.80;1.70;;;;;;;;;;5074970;28;20212;-69
2022/08/02 13:16:53;;;;;;;2.00;1.90;;;;;;;;;;5073923;28;20208;-69
2022/08/02 13:19:20;;;;;;;1.73;1.63;;;;;;;;;;5075640;28;20197;-69
2022/08/02 13:21:48;;;;;;;1.90;1.80;;;;;;;;;;5075453;28;20677;-69
2022/08/02 13:24:16;;;;;;;1.70;1.60;;;;;;;;;;5074789;28;20239;-69
2022/08/02 13:26:44;;;;;;;2.05;1.95;;;;;;;;;;5075857;28;20197;-69
2022/08/02 13:29:11;;;;;;;1.77;1.67;;;;;;;;;;5075304;28;20204;-69
2022/08/02 13:31:39;;;;;;;1.77;1.67;;;;;;;;;;5074971;28;20493;-69
2022/08/02 13:34:08;;;;;;;1.83;1.73;;;;;;;;;;5073672;28;20586;-69
2022/08/02 13:36:36;;;;;;;1.58;1.48;;;;;;;;;;5075332;28;20793;-69
2022/08/02 13:39:04;;;;;;;1.90;1.80;;;;;;;;;;5074792;28;20627;-69
2022/08/02 13:41:32;;;;;;;1.90;1.80;;;;;;;;;;5070157;28;20209;-69
2022/08/02 13:44:02;;;;;;;1.60;1.50;;;;;;;;;;5055013;28;20204;-69
2022/08/02 13:46:34;;;;;;;1.88;1.77;;;;;;;;;;5054926;28;20201;-69
2022/08/02 13:49:01;;;;;;;2.03;1.92;;;;;;;;;;5054489;28;20205;-69
2022/08/02 13:51:30;;;;;;;2.00;1.90;;;;;;;;;;5054341;28;20304;-69
2022/08/02 13:53:57;;;;;;;1.77;1.67;;;;;;;;;;5054755;28;20201;-69
2022/08/02 13:56:26;;;;;;;1.70;1.60;;;;;;;;;;5054319;28;20201;-69
2022/08/02 13:58:53;;;;;;;1.70;1.60;;;;;;;;;;5054148;28;20232;-69
2022/08/02 14:01:20;;;;;;;2.20;2.00;;;;;;;;;;5054437;28;20208;-69
2022/08/02 14:03:48;;;;;;;2.00;1.90;;;;;;;;;;5054384;28;20267;-69
2022/08/02 14:06:15;;;;;;;2.13;2.03;;;;;;;;;;5053879;28;20266;-69
2022/08/02 14:08:44;;;;;;;1.80;1.70;;;;;;;;;;5054416;28;20215;-69
2022/08/02 14:11:11;;;;;;;2.00;1.90;;;;;;;;;;5054333;28;20311;-69
2022/08/02 14:13:38;;;;;;;1.70;1.60;;;;;;;;;;5054679;28;20208;-69
2022/08/02 14:16:06;;;;;;;2.00;1.80;;;;;;;;;;5055171;28;20270;-69
2022/08/02 14:18:33;;;;;;;1.50;1.40;;;;;;;;;;5054291;28;20197;-69
2022/08/02 14:21:00;;;;;;;1.90;1.80;;;;;;;;;;5054068;28;20711;-69
2022/08/02 14:23:30;;;;;;;2.05;1.90;;;;;;;;;;5054023;28;20228;-69
2022/08/02 14:25:59;;;;;;;1.92;1.83;;;;;;;;;;5053825;28;20205;-69
2022/08/02 14:28:27;;;;;;;1.80;1.70;;;;;;;;;;5053621;28;20220;-69
2022/08/02 14:30:54;;;;;;;1.77;1.67;;;;;;;;;;5053802;28;20212;-69
2022/08/02 14:33:22;;;;;;;1.80;1.70;;;;;;;;;;5054104;28;20201;-69
2022/08/02 14:35:49;;;;;;;1.83;1.73;;;;;;;;;;5053194;28;20233;-69
2022/08/02 14:38:18;;;;;;;1.80;1.70;;;;;;;;;;5057280;28;20200;-69
2022/08/02 14:40:45;;;;;;;1.90;1.80;;;;;;;;;;5073819;28;20204;-69
2022/08/02 14:44:02;;;;;;;2.00;1.90;;;;;;;;;;5073185;28;20227;-69
2022/08/02 14:46:02;;;;;;;1.80;1.70;;;;;;;;;;5073178;28;20200;-69
2022/08/02 14:48:31;;;;;;;2.00;1.80;;;;;;;;;;5073266;28;20721;-69
2022/08/02 14:50:59;;;;;;;1.75;1.65;;;;;;;;;;5073980;28;20661;-70
2022/08/02 14:53:26;;;;;;;1.95;1.85;;;;;;;;;;5073339;28;20576;-69
2022/08/02 14:55:53;;;;;;;1.80;1.70;;;;;;;;;;5072523;28;20219;-70
2022/08/02 14:58:22;;;;;;;1.90;1.80;;;;;;;;;;5073285;28;20732;-69
2022/08/02 15:00:49;;;;;;;2.00;1.70;;;;;;;;;;5073118;28;20219;-69
2022/08/02 15:03:17;;;;;;;2.20;1.95;;;;;;;;;;5072998;28;20784;-69